CFBCP CYRQ-CYQB
Flight info
| Callsign | CFBCP |
|---|---|
| Flight time | 0h 28m |
| Altitude | 5500 |
| Route | DIRECT |
| Aircraft | DA42/L-SDFGHIRTUY/C |
Departure
| Time | 2026-05-03 21:42 |
|---|---|
| Airport | Trois-Rivières Airport (CYRQ) |
Arrival
| Time | 2026-05-03 22:10 |
|---|---|
| Airport | Quebec Jean Lesage International Airport (CYQB) |
| Time | Latitude | Longitude | Altitude | Speed | Heading |
|---|---|---|---|---|---|
| 2026-05-03 21:28 | 46.36223 | -72.67499 | 202 ft | 0 kts | 109° |
| 2026-05-03 21:39 | 46.36205 | -72.67509 | 206 ft | 9 kts | 216° |
| 2026-05-03 21:39 | 46.36139 | -72.67495 | 208 ft | 11 kts | 146° |
| 2026-05-03 21:39 | 46.36075 | -72.67435 | 207 ft | 11 kts | 149° |
| 2026-05-03 21:39 | 46.36055 | -72.67418 | 203 ft | 0 kts | 152° |
| 2026-05-03 21:40 | 46.36050 | -72.67415 | 203 ft | 4 kts | 151° |
| 2026-05-03 21:40 | 46.35977 | -72.67363 | 206 ft | 15 kts | 168° |
| 2026-05-03 21:41 | 46.35832 | -72.67455 | 202 ft | 44 kts | 210° |
| 2026-05-03 21:41 | 46.35427 | -72.67809 | 202 ft | 89 kts | 211° |
| 2026-05-03 21:41 | 46.34849 | -72.68287 | 361 ft | 101 kts | 210° |
| 2026-05-03 21:41 | 46.34199 | -72.68813 | 598 ft | 112 kts | 210° |
| 2026-05-03 21:42 | 46.33578 | -72.69562 | 797 ft | 123 kts | 241° |
| 2026-05-03 21:42 | 46.33405 | -72.70723 | 1131 ft | 118 kts | 278° |
| 2026-05-03 21:42 | 46.33829 | -72.71730 | 1331 ft | 122 kts | 329° |
| 2026-05-03 21:42 | 46.34643 | -72.71827 | 1580 ft | 123 kts | 20° |
| 2026-05-03 21:43 | 46.35289 | -72.71012 | 1791 ft | 129 kts | 53° |
| 2026-05-03 21:43 | 46.35665 | -72.69818 | 2017 ft | 136 kts | 84° |
| 2026-05-03 21:43 | 46.35503 | -72.68467 | 2285 ft | 135 kts | 97° |
| 2026-05-03 21:43 | 46.35471 | -72.67096 | 2620 ft | 136 kts | 86° |
| 2026-05-03 21:44 | 46.35692 | -72.65773 | 2822 ft | 138 kts | 59° |
| 2026-05-03 21:44 | 46.36265 | -72.64639 | 2992 ft | 142 kts | 51° |
| 2026-05-03 21:44 | 46.36767 | -72.63387 | 3232 ft | 145 kts | 58° |
| 2026-05-03 21:44 | 46.37208 | -72.62049 | 3401 ft | 148 kts | 60° |
| 2026-05-03 21:45 | 46.37654 | -72.60715 | 3638 ft | 146 kts | 58° |
| 2026-05-03 21:45 | 46.38123 | -72.59465 | 3961 ft | 139 kts | 56° |
| 2026-05-03 21:45 | 46.38589 | -72.58200 | 4151 ft | 143 kts | 58° |
| 2026-05-03 21:45 | 46.39045 | -72.56920 | 4396 ft | 143 kts | 58° |
| 2026-05-03 21:46 | 46.39495 | -72.55630 | 4665 ft | 144 kts | 58° |
| 2026-05-03 21:46 | 46.39942 | -72.54347 | 4896 ft | 145 kts | 58° |
| 2026-05-03 21:46 | 46.40395 | -72.53046 | 5162 ft | 144 kts | 58° |
| 2026-05-03 21:46 | 46.40848 | -72.51742 | 5421 ft | 145 kts | 58° |
| 2026-05-03 21:47 | 46.41314 | -72.50402 | 5494 ft | 155 kts | 58° |
| 2026-05-03 21:47 | 46.41810 | -72.48972 | 5494 ft | 161 kts | 58° |
| 2026-05-03 21:47 | 46.42316 | -72.47514 | 5498 ft | 162 kts | 58° |
| 2026-05-03 21:47 | 46.42827 | -72.46042 | 5494 ft | 163 kts | 59° |
| 2026-05-03 21:48 | 46.43334 | -72.44572 | 5494 ft | 162 kts | 59° |
| 2026-05-03 21:48 | 46.43841 | -72.43113 | 5494 ft | 162 kts | 58° |
| 2026-05-03 21:48 | 46.44351 | -72.41646 | 5494 ft | 163 kts | 58° |
| 2026-05-03 21:48 | 46.44860 | -72.40177 | 5494 ft | 163 kts | 58° |
| 2026-05-03 21:49 | 46.45370 | -72.38712 | 5497 ft | 163 kts | 58° |
| 2026-05-03 21:49 | 46.45872 | -72.37258 | 5494 ft | 163 kts | 59° |
| 2026-05-03 21:49 | 46.46380 | -72.35787 | 5495 ft | 163 kts | 58° |
| 2026-05-03 21:49 | 46.46888 | -72.34318 | 5494 ft | 163 kts | 58° |
| 2026-05-03 21:50 | 46.47395 | -72.32846 | 5497 ft | 163 kts | 59° |
| 2026-05-03 21:50 | 46.47909 | -72.31368 | 5495 ft | 165 kts | 58° |
| 2026-05-03 21:50 | 46.48419 | -72.29884 | 5495 ft | 164 kts | 59° |
| 2026-05-03 21:50 | 46.48929 | -72.28402 | 5495 ft | 163 kts | 59° |
| 2026-05-03 21:51 | 46.49436 | -72.26930 | 5495 ft | 163 kts | 58° |
| 2026-05-03 21:51 | 46.49945 | -72.25456 | 5494 ft | 163 kts | 59° |
| 2026-05-03 21:51 | 46.50455 | -72.23975 | 5496 ft | 165 kts | 59° |
| 2026-05-03 21:51 | 46.50964 | -72.22493 | 5496 ft | 164 kts | 59° |
| 2026-05-03 21:52 | 46.51472 | -72.21014 | 5496 ft | 164 kts | 59° |
| 2026-05-03 21:52 | 46.51974 | -72.19555 | 5496 ft | 163 kts | 59° |
| 2026-05-03 21:52 | 46.52487 | -72.18062 | 5496 ft | 163 kts | 59° |
| 2026-05-03 21:52 | 46.52991 | -72.16604 | 5497 ft | 164 kts | 58° |
| 2026-05-03 21:53 | 46.53501 | -72.15114 | 5498 ft | 165 kts | 59° |
| 2026-05-03 21:53 | 46.54013 | -72.13616 | 5496 ft | 165 kts | 59° |
| 2026-05-03 21:53 | 46.54524 | -72.12125 | 5497 ft | 165 kts | 59° |
| 2026-05-03 21:53 | 46.55033 | -72.10638 | 5495 ft | 164 kts | 59° |
| 2026-05-03 21:54 | 46.55542 | -72.09151 | 5501 ft | 165 kts | 59° |
| 2026-05-03 21:54 | 46.56053 | -72.07659 | 5496 ft | 165 kts | 59° |
| 2026-05-03 21:54 | 46.56562 | -72.06170 | 5496 ft | 164 kts | 59° |
| 2026-05-03 21:54 | 46.57068 | -72.04690 | 5496 ft | 163 kts | 59° |
| 2026-05-03 21:55 | 46.57570 | -72.03219 | 5496 ft | 162 kts | 59° |
| 2026-05-03 21:55 | 46.58073 | -72.01748 | 5496 ft | 162 kts | 59° |
| 2026-05-03 21:55 | 46.58574 | -72.00279 | 5496 ft | 162 kts | 59° |
| 2026-05-03 21:55 | 46.59076 | -71.98809 | 5497 ft | 163 kts | 58° |
| 2026-05-03 21:56 | 46.59578 | -71.97334 | 5498 ft | 163 kts | 58° |
| 2026-05-03 21:56 | 46.60081 | -71.95857 | 5498 ft | 163 kts | 58° |
| 2026-05-03 21:56 | 46.60584 | -71.94377 | 5499 ft | 164 kts | 59° |
| 2026-05-03 21:56 | 46.61090 | -71.92892 | 5497 ft | 163 kts | 59° |
| 2026-05-03 21:57 | 46.61561 | -71.91384 | 5497 ft | 166 kts | 69° |
| 2026-05-03 21:57 | 46.61803 | -71.89732 | 5500 ft | 167 kts | 76° |
| 2026-05-03 21:57 | 46.61999 | -71.88085 | 5499 ft | 168 kts | 76° |
| 2026-05-03 21:57 | 46.62193 | -71.86409 | 5499 ft | 168 kts | 76° |
| 2026-05-03 21:58 | 46.62387 | -71.84742 | 5504 ft | 167 kts | 76° |
| 2026-05-03 21:58 | 46.62579 | -71.83074 | 5502 ft | 166 kts | 76° |
| 2026-05-03 21:58 | 46.62714 | -71.81905 | 5499 ft | 167 kts | 76° |
| 2026-05-03 21:58 | 46.62907 | -71.80233 | 5495 ft | 167 kts | 76° |
| 2026-05-03 21:59 | 46.63097 | -71.78582 | 5500 ft | 166 kts | 76° |
| 2026-05-03 21:59 | 46.63287 | -71.76930 | 5498 ft | 165 kts | 76° |
| 2026-05-03 21:59 | 46.63482 | -71.75252 | 5367 ft | 172 kts | 76° |
| 2026-05-03 21:59 | 46.63683 | -71.73530 | 5245 ft | 172 kts | 76° |
| 2026-05-03 22:00 | 46.63882 | -71.71812 | 5123 ft | 172 kts | 76° |
| 2026-05-03 22:00 | 46.64085 | -71.70092 | 4997 ft | 172 kts | 76° |
| 2026-05-03 22:00 | 46.64287 | -71.68391 | 4866 ft | 169 kts | 76° |
| 2026-05-03 22:00 | 46.64487 | -71.66713 | 4741 ft | 167 kts | 76° |
| 2026-05-03 22:01 | 46.64684 | -71.65051 | 4616 ft | 166 kts | 76° |
| 2026-05-03 22:01 | 46.64882 | -71.63395 | 4491 ft | 166 kts | 76° |
| 2026-05-03 22:01 | 46.65082 | -71.61752 | 4366 ft | 165 kts | 76° |
| 2026-05-03 22:01 | 46.65283 | -71.60128 | 4251 ft | 167 kts | 76° |
| 2026-05-03 22:02 | 46.65490 | -71.58462 | 4123 ft | 167 kts | 76° |
| 2026-05-03 22:02 | 46.65697 | -71.56789 | 3995 ft | 168 kts | 76° |
| 2026-05-03 22:02 | 46.65904 | -71.55113 | 3871 ft | 170 kts | 76° |
| 2026-05-03 22:02 | 46.66118 | -71.53425 | 3743 ft | 169 kts | 76° |
| 2026-05-03 22:03 | 46.66335 | -71.51747 | 3618 ft | 168 kts | 76° |
| 2026-05-03 22:03 | 46.66551 | -71.50084 | 3494 ft | 166 kts | 76° |
| 2026-05-03 22:03 | 46.66769 | -71.48433 | 3376 ft | 167 kts | 76° |
| 2026-05-03 22:03 | 46.66989 | -71.46777 | 3243 ft | 166 kts | 76° |
| 2026-05-03 22:04 | 46.67209 | -71.45129 | 3117 ft | 165 kts | 76° |
| 2026-05-03 22:04 | 46.67431 | -71.43490 | 3000 ft | 165 kts | 76° |
| 2026-05-03 22:04 | 46.67670 | -71.41907 | 3017 ft | 156 kts | 72° |
| 2026-05-03 22:04 | 46.68015 | -71.40419 | 2994 ft | 153 kts | 65° |
| 2026-05-03 22:05 | 46.68445 | -71.38985 | 3001 ft | 157 kts | 62° |
| 2026-05-03 22:05 | 46.68940 | -71.37563 | 3005 ft | 158 kts | 58° |
| 2026-05-03 22:05 | 46.69488 | -71.36164 | 2978 ft | 159 kts | 56° |
| 2026-05-03 22:05 | 46.70049 | -71.34781 | 3000 ft | 159 kts | 56° |
| 2026-05-03 22:06 | 46.70623 | -71.33415 | 2989 ft | 160 kts | 55° |
| 2026-05-03 22:06 | 46.71221 | -71.32058 | 2997 ft | 157 kts | 53° |
| 2026-05-03 22:06 | 46.71838 | -71.30758 | 2929 ft | 155 kts | 49° |
| 2026-05-03 22:06 | 46.72614 | -71.29777 | 2930 ft | 146 kts | 25° |
| 2026-05-03 22:07 | 46.73579 | -71.29331 | 2820 ft | 148 kts | 6° |
| 2026-05-03 22:07 | 46.74599 | -71.29265 | 2667 ft | 146 kts | 352° |
| 2026-05-03 22:07 | 46.75555 | -71.29706 | 2426 ft | 142 kts | 330° |
| 2026-05-03 22:07 | 46.76347 | -71.30473 | 2218 ft | 135 kts | 321° |
| 2026-05-03 22:08 | 46.77022 | -71.31311 | 2156 ft | 120 kts | 316° |
| 2026-05-03 22:08 | 46.77583 | -71.32177 | 1930 ft | 112 kts | 307° |
| 2026-05-03 22:08 | 46.78007 | -71.33093 | 1646 ft | 105 kts | 301° |
| 2026-05-03 22:08 | 46.78320 | -71.34002 | 1308 ft | 93 kts | 291° |
| 2026-05-03 22:09 | 46.78470 | -71.34878 | 996 ft | 82 kts | 278° |
| 2026-05-03 22:09 | 46.78511 | -71.35720 | 692 ft | 82 kts | 273° |
| 2026-05-03 22:09 | 46.78565 | -71.36531 | 494 ft | 77 kts | 278° |
| 2026-05-03 22:10 | 46.78700 | -71.38139 | 247 ft | 76 kts | 291° |
| 2026-05-03 22:10 | 46.78768 | -71.38757 | 236 ft | 47 kts | 275° |
| 2026-05-03 22:10 | 46.78784 | -71.38973 | 236 ft | 10 kts | 137° |
| 2026-05-03 22:10 | 46.78763 | -71.38752 | 236 ft | 26 kts | 97° |
| 2026-05-03 22:11 | 46.78744 | -71.38544 | 236 ft | 19 kts | 100° |
| 2026-05-03 22:11 | 46.78725 | -71.38339 | 237 ft | 20 kts | 99° |
| 2026-05-03 22:11 | 46.78716 | -71.38148 | 237 ft | 18 kts | 61° |
| 2026-05-03 22:11 | 46.78857 | -71.38096 | 238 ft | 22 kts | 8° |
| 2026-05-03 22:12 | 46.78914 | -71.37998 | 238 ft | 13 kts | 89° |
| 2026-05-03 22:12 | 46.78970 | -71.37880 | 238 ft | 16 kts | 48° |
| 2026-05-03 22:12 | 46.79048 | -71.37770 | 238 ft | 15 kts | 43° |
| 2026-05-03 22:12 | 46.79124 | -71.37661 | 238 ft | 15 kts | 44° |
| 2026-05-03 22:13 | 46.79204 | -71.37545 | 238 ft | 17 kts | 44° |
| 2026-05-03 22:13 | 46.79274 | -71.37523 | 238 ft | 12 kts | 305° |
| 2026-05-03 22:13 | 46.79289 | -71.37602 | 238 ft | 5 kts | 40° |
| 2026-05-03 22:13 | 46.79302 | -71.37573 | 238 ft | 0 kts | 155° |